Time;durP1;ratioP1;P1;durP2;ratioP2;P2;SDS_P1;SDS_P2;PMS_P1;PMS_P2;Temp;Humidity;BMP_temperature;BMP_pressure;BME280_temperature;BME280_humidity;BME280_pressure;Samples;Min_cycle;Max_cycle;Signal;HPM_P1;HPM_P2
2022/04/08 00:01:07;;;;;;;;;;;;;;;11.61;78.34;97544.84;5094582;28;19924;-70
2022/04/08 00:03:35;;;;;;;;;;;;;;;11.57;78.17;97545.81;5094510;28;19927;-70
2022/04/08 00:06:04;;;;;;;;;;;;;;;11.53;78.67;97559.63;5094495;28;19920;-70
2022/04/08 00:08:32;;;;;;;;;;;;;;;11.56;78.37;97559.50;5094421;28;19920;-71
2022/04/08 00:11:01;;;;;;;;;;;;;;;11.56;78.36;97569.72;5094429;28;19920;-70
2022/04/08 00:13:30;;;;;;;;;;;;;;;11.64;78.29;97577.06;5094251;28;19920;-71
2022/04/08 00:16:00;;;;;;;;;;;;;;;11.67;78.07;97582.91;5094337;28;19986;-69
2022/04/08 00:18:29;;;;;;;;;;;;;;;11.67;78.15;97572.69;5094309;28;19920;-70
2022/04/08 00:20:57;;;;;;;;;;;;;;;11.67;77.96;97570.13;5094013;28;19930;-71
2022/04/08 00:23:26;;;;;;;;;;;;;;;11.68;77.97;97578.66;5094196;28;19920;-70
2022/04/08 00:25:54;;;;;;;;;;;;;;;11.69;77.74;97570.91;5094527;28;19927;-70
2022/04/08 00:28:23;;;;;;;;;;;;;;;11.73;77.26;97562.28;5094465;28;20266;-70
2022/04/08 00:30:52;;;;;;;;;;;;;;;11.76;76.96;97572.34;5094132;28;19920;-71
2022/04/08 00:33:22;;;;;;;;;;;;;;;11.77;76.51;97584.25;5093966;28;19927;-71
2022/04/08 00:35:51;;;;;;;;;;;;;;;11.78;76.04;97588.44;5094402;28;19951;-71
2022/04/08 00:38:19;;;;;;;;;;;;;;;11.87;75.69;97585.56;5094353;28;20289;-69
2022/04/08 00:40:48;;;;;;;;;;;;;;;11.91;75.10;97592.19;5094032;28;20400;-70
2022/04/08 00:43:17;;;;;;;;;;;;;;;11.93;74.49;97600.63;5093945;28;19920;-70
2022/04/08 00:45:46;;;;;;;;;;;;;;;11.99;74.07;97604.69;5093983;28;19920;-70
2022/04/08 00:48:15;;;;;;;;;;;;;;;12.05;73.74;97602.69;5093956;28;20373;-71
2022/04/08 00:50:45;;;;;;;;;;;;;;;12.12;73.17;97615.25;5093888;28;19973;-70
2022/04/08 00:53:14;;;;;;;;;;;;;;;12.18;72.59;97625.22;5093831;28;19920;-70
2022/04/08 00:55:42;;;;;;;;;;;;;;;12.22;72.14;97611.41;5094108;28;20344;-70
2022/04/08 00:58:11;;;;;;;;;;;;;;;12.28;71.45;97613.72;5093792;28;19920;-70
2022/04/08 01:00:42;;;;;;;;;;;;;;;12.34;70.89;97610.91;5094416;28;19927;-70
2022/04/08 01:03:11;;;;;;;;;;;;;;;12.40;70.50;97631.16;5094382;28;19920;-71
2022/04/08 01:05:39;;;;;;;;;;;;;;;12.48;69.68;97636.75;5093770;28;20041;-71
2022/04/08 01:08:12;;;;;;;;;;;;;;;12.52;69.19;97636.59;5094053;28;19977;-69
2022/04/08 01:10:41;;;;;;;;;;;;;;;12.61;67.97;97646.44;5095830;28;19926;-70
2022/04/08 01:13:09;;;;;;;;;;;;;;;12.66;67.66;97647.09;5097931;28;20459;-70
2022/04/08 01:15:38;;;;;;;;;;;;;;;12.73;67.48;97665.56;5098000;28;20377;-70
2022/04/08 01:18:07;;;;;;;;;;;;;;;12.76;66.51;97675.69;5097691;28;20384;-70
2022/04/08 01:20:35;;;;;;;;;;;;;;;12.81;65.59;97689.13;5097622;28;19920;-71
2022/04/08 01:23:04;;;;;;;;;;;;;;;12.82;64.99;97707.84;5097485;28;19942;-70
2022/04/08 01:25:34;;;;;;;;;;;;;;;12.86;65.16;97743.50;5097494;28;20378;-70
2022/04/08 01:28:03;;;;;;;;;;;;;;;12.89;64.85;97757.91;5097897;28;20006;-71
2022/04/08 01:30:32;;;;;;;;;;;;;;;12.88;64.19;97759.66;5097431;28;19919;-71
2022/04/08 01:33:00;;;;;;;;;;;;;;;12.87;64.36;97770.78;5097285;28;19927;-71
2022/04/08 01:35:29;;;;;;;;;;;;;;;12.87;64.00;97750.31;5098086;28;20022;-71
2022/04/08 01:37:58;;;;;;;;;;;;;;;12.87;63.44;97747.75;5097431;28;19963;-71
2022/04/08 01:40:26;;;;;;;;;;;;;;;12.85;63.49;97739.28;5097348;28;20392;-71
2022/04/08 01:42:56;;;;;;;;;;;;;;;12.82;62.98;97721.50;5097522;28;20327;-72
2022/04/08 01:45:25;;;;;;;;;;;;;;;12.78;61.32;97735.31;5097128;28;19927;-71
2022/04/08 01:47:54;;;;;;;;;;;;;;;12.77;60.32;97728.53;5097063;28;19926;-71
2022/04/08 01:50:22;;;;;;;;;;;;;;;12.74;58.34;97734.59;5097030;28;19927;-71
2022/04/08 01:52:51;;;;;;;;;;;;;;;12.70;57.55;97727.09;5096934;28;20270;-70
2022/04/08 01:55:19;;;;;;;;;;;;;;;12.71;56.20;97749.25;5096744;28;19920;-70
2022/04/08 01:57:48;;;;;;;;;;;;;;;12.70;55.81;97747.59;5097473;28;19931;-70
2022/04/08 02:00:18;;;;;;;;;;;;;;;12.69;55.63;97751.06;5096818;28;20370;-70
2022/04/08 02:02:47;;;;;;;;;;;;;;;12.63;55.47;97761.53;5078779;28;19920;-69
2022/04/08 02:05:16;;;;;;;;;;;;;;;12.53;55.99;97773.00;5097102;28;19920;-71
2022/04/08 02:07:44;;;;;;;;;;;;;;;12.46;56.13;97779.25;5096751;28;19927;-69
2022/04/08 02:10:13;;;;;;;;;;;;;;;12.42;56.27;97782.84;5096652;28;19927;-69
2022/04/08 02:12:42;;;;;;;;;;;;;;;12.40;56.32;97789.75;5096611;28;19970;-69
2022/04/08 02:15:11;;;;;;;;;;;;;;;12.37;56.37;97789.84;5096879;28;19955;-70
2022/04/08 02:17:41;;;;;;;;;;;;;;;12.37;55.89;97805.19;5096917;28;20373;-70
2022/04/08 02:20:10;;;;;;;;;;;;;;;12.41;55.88;97792.22;5096527;28;20011;-70
2022/04/08 02:22:38;;;;;;;;;;;;;;;12.39;55.74;97788.06;5095382;28;20010;-70
2022/04/08 02:25:11;;;;;;;;;;;;;;;12.40;56.05;97795.69;5096814;28;19924;-70
2022/04/08 02:27:39;;;;;;;;;;;;;;;12.40;55.71;97774.41;5096595;28;19924;-70
2022/04/08 02:30:09;;;;;;;;;;;;;;;12.39;56.09;97777.84;5096304;28;19920;-71
2022/04/08 02:32:37;;;;;;;;;;;;;;;12.37;56.43;97774.50;5096168;28;19927;-70
2022/04/08 02:35:08;;;;;;;;;;;;;;;12.31;56.81;97782.44;5078522;28;20345;-70
2022/04/08 02:37:37;;;;;;;;;;;;;;;12.24;56.99;97792.03;5045330;28;19920;-71
2022/04/08 02:40:06;;;;;;;;;;;;;;;12.20;57.54;97789.66;5096092;28;19920;-70
2022/04/08 02:42:34;;;;;;;;;;;;;;;12.14;57.94;97777.91;5096065;28;19955;-71
2022/04/08 02:45:04;;;;;;;;;;;;;;;12.12;58.35;97784.00;5096034;28;19926;-71
2022/04/08 02:47:32;;;;;;;;;;;;;;;12.05;58.79;97799.56;5095819;28;19920;-70
2022/04/08 02:50:01;;;;;;;;;;;;;;;11.97;58.88;97800.75;5095915;28;19920;-70
2022/04/08 02:52:31;;;;;;;;;;;;;;;11.92;58.84;97793.25;5095928;28;19924;-70
2022/04/08 02:55:00;;;;;;;;;;;;;;;11.92;58.52;97798.38;5095837;28;19978;-70
2022/04/08 02:57:28;;;;;;;;;;;;;;;11.88;58.22;97807.00;5095837;28;20316;-70
2022/04/08 02:59:57;;;;;;;;;;;;;;;11.87;58.52;97814.75;5096369;28;19923;-69
2022/04/08 03:02:26;;;;;;;;;;;;;;;11.79;58.37;97807.34;5096066;28;19920;-70
2022/04/08 03:04:55;;;;;;;;;;;;;;;11.76;57.92;97810.00;5095916;28;20328;-70
2022/04/08 03:07:24;;;;;;;;;;;;;;;11.74;56.95;97806.66;5095535;28;19920;-70
2022/04/08 03:09:53;;;;;;;;;;;;;;;11.72;56.35;97805.91;5095369;28;19920;-70
2022/04/08 03:12:22;;;;;;;;;;;;;;;11.71;54.82;97804.22;5095458;28;19919;-70
2022/04/08 03:14:51;;;;;;;;;;;;;;;11.70;53.67;97820.47;5095197;28;19920;-71
2022/04/08 03:17:19;;;;;;;;;;;;;;;11.70;53.00;97832.41;5095452;28;19924;-70
2022/04/08 03:19:48;;;;;;;;;;;;;;;11.67;52.25;97842.69;5095500;28;19924;-70
2022/04/08 03:22:19;;;;;;;;;;;;;;;11.65;51.33;97829.13;5095344;28;20317;-70
2022/04/08 03:24:48;;;;;;;;;;;;;;;11.65;50.68;97850.41;5095653;28;19931;-70
2022/04/08 03:27:19;;;;;;;;;;;;;;;11.64;49.83;97848.72;5096067;28;20243;-71
2022/04/08 03:29:48;;;;;;;;;;;;;;;11.62;49.43;97839.44;5095139;28;20014;-70
2022/04/08 03:32:17;;;;;;;;;;;;;;;11.58;48.14;97853.22;5095416;28;20346;-71
2022/04/08 03:34:46;;;;;;;;;;;;;;;11.58;47.24;97858.34;5094834;28;19967;-70
2022/04/08 03:37:16;;;;;;;;;;;;;;;11.57;46.37;97852.38;5094965;28;19920;-70
2022/04/08 03:39:45;;;;;;;;;;;;;;;11.57;46.70;97867.72;5094913;28;19919;-70
2022/04/08 03:42:13;;;;;;;;;;;;;;;11.54;47.11;97883.13;5094887;28;19920;-70
2022/04/08 03:44:44;;;;;;;;;;;;;;;11.46;46.72;97882.56;5094799;28;19920;-70
2022/04/08 03:47:12;;;;;;;;;;;;;;;11.40;45.88;97910.84;5095219;28;19924;-71
2022/04/08 03:49:41;;;;;;;;;;;;;;;11.37;45.67;97898.22;5094637;28;19920;-69
2022/04/08 03:52:10;;;;;;;;;;;;;;;11.37;45.21;97890.53;5094654;28;19965;-70
2022/04/08 03:54:39;;;;;;;;;;;;;;;11.37;45.29;97921.19;5076569;28;19926;-71
2022/04/08 03:57:08;;;;;;;;;;;;;;;11.36;44.66;97942.50;5094717;28;20361;-70
2022/04/08 03:59:41;;;;;;;;;;;;;;;11.33;44.53;97942.59;5094572;28;19931;-70
2022/04/08 04:02:11;;;;;;;;;;;;;;;11.29;44.46;97938.47;5094541;28;19927;-70
2022/04/08 04:04:40;;;;;;;;;;;;;;;11.28;44.49;97952.09;5094522;28;19927;-70
2022/04/08 04:07:09;;;;;;;;;;;;;;;11.28;44.53;97962.31;5094725;28;20337;-72
2022/04/08 04:09:38;;;;;;;;;;;;;;;11.25;44.82;97942.00;5094336;28;19993;-70
2022/04/08 04:12:08;;;;;;;;;;;;;;;11.27;44.35;97945.34;5094422;28;20467;-70
2022/04/08 04:14:37;;;;;;;;;;;;;;;11.23;43.56;97959.06;5094359;28;19919;-70
2022/04/08 04:17:06;;;;;;;;;;;;;;;11.18;43.64;97971.16;5094340;28;19920;-71
2022/04/08 04:19:37;;;;;;;;;;;;;;;11.15;43.71;97996.78;5094282;28;19920;-70
2022/04/08 04:22:05;;;;;;;;;;;;;;;11.14;43.56;97990.00;5094291;28;19920;-70
2022/04/08 04:24:34;;;;;;;;;;;;;;;11.17;43.53;97985.66;5094501;28;20014;-71
2022/04/08 04:27:02;;;;;;;;;;;;;;;11.16;43.56;97983.13;5094157;28;19927;-70
2022/04/08 04:29:31;;;;;;;;;;;;;;;11.17;44.09;97995.03;5094435;28;20015;-70
2022/04/08 04:31:59;;;;;;;;;;;;;;;11.18;44.24;98001.81;5094459;28;19920;-70
2022/04/08 04:34:28;;;;;;;;;;;;;;;11.14;44.22;98000.22;5093998;28;19919;-70
2022/04/08 04:36:58;;;;;;;;;;;;;;;11.15;44.07;97991.69;5094051;28;19962;-71
2022/04/08 04:39:27;;;;;;;;;;;;;;;11.13;43.96;97989.16;5094048;28;19926;-71
2022/04/08 04:41:55;;;;;;;;;;;;;;;11.16;43.89;97978.84;5093957;28;19946;-70
2022/04/08 04:44:26;;;;;;;;;;;;;;;11.21;43.88;97971.06;5093407;28;19927;-70
2022/04/08 04:46:55;;;;;;;;;;;;;;;11.17;44.06;97943.97;5094000;28;19920;-70
2022/04/08 04:49:23;;;;;;;;;;;;;;;11.14;44.57;97959.38;5094200;28;19927;-70
2022/04/08 04:51:52;;;;;;;;;;;;;;;11.13;44.50;97963.63;5094135;28;20323;-70
2022/04/08 04:54:22;;;;;;;;;;;;;;;11.14;44.67;97972.13;5093788;28;19946;-70
2022/04/08 04:56:51;;;;;;;;;;;;;;;11.06;44.93;98012.38;5094075;28;19920;-71
2022/04/08 04:59:19;;;;;;;;;;;;;;;11.01;46.63;98034.66;5094236;28;19986;-70
2022/04/08 05:01:48;;;;;;;;;;;;;;;10.90;47.59;98049.41;5094265;28;19924;-69
2022/04/08 05:04:17;;;;;;;;;;;;;;;10.91;48.39;98048.56;5093843;28;19924;-70
2022/04/08 05:06:46;;;;;;;;;;;;;;;10.93;48.47;98062.94;5093778;28;19926;-70
2022/04/08 05:09:15;;;;;;;;;;;;;;;10.76;49.06;98044.72;5093717;28;19920;-69
2022/04/08 05:11:45;;;;;;;;;;;;;;;10.53;50.50;98022.38;5093702;28;19924;-70
2022/04/08 05:14:13;;;;;;;;;;;;;;;10.49;50.31;98019.94;5093648;28;19919;-70
2022/04/08 05:16:42;;;;;;;;;;;;;;;10.34;51.37;98031.41;5093950;28;20358;-70
2022/04/08 05:19:11;;;;;;;;;;;;;;;10.26;51.45;98046.06;5093593;28;19924;-70
2022/04/08 05:21:40;;;;;;;;;;;;;;;10.25;51.78;98052.03;5093569;28;19927;-70
2022/04/08 05:24:08;;;;;;;;;;;;;;;10.25;52.06;98067.34;5093863;28;20267;-69
2022/04/08 05:26:37;;;;;;;;;;;;;;;10.31;52.48;98087.59;5094249;28;19920;-70
2022/04/08 05:29:07;;;;;;;;;;;;;;;10.35;52.46;98094.28;5093561;28;19920;-70
2022/04/08 05:31:35;;;;;;;;;;;;;;;10.44;52.34;98123.78;5093993;28;20382;-70
2022/04/08 05:34:04;;;;;;;;;;;;;;;10.54;51.45;98120.13;5075359;28;19923;-70
2022/04/08 05:36:33;;;;;;;;;;;;;;;10.59;51.33;98119.16;5093520;28;19920;-70
2022/04/08 05:39:01;;;;;;;;;;;;;;;10.68;50.50;98095.94;5093451;28;19936;-70
2022/04/08 05:41:30;;;;;;;;;;;;;;;10.73;50.01;98106.03;5093854;28;19969;-69
2022/04/08 05:43:59;;;;;;;;;;;;;;;10.80;49.43;98107.53;5093345;28;19927;-71
2022/04/08 05:46:29;;;;;;;;;;;;;;;10.89;49.39;98112.41;5093421;28;19981;-70
2022/04/08 05:48:57;;;;;;;;;;;;;;;10.96;49.39;98113.91;5093784;28;20438;-71
2022/04/08 05:51:26;;;;;;;;;;;;;;;11.03;49.57;98119.69;5094195;28;20380;-70
2022/04/08 05:54:14;;;;;;;;;;;;;;;11.08;49.52;98133.16;5093579;28;19963;-71
2022/04/08 05:56:43;;;;;;;;;;;;;;;11.06;50.52;98145.94;5093970;28;20293;-70
2022/04/08 05:59:12;;;;;;;;;;;;;;;11.07;51.11;98136.56;5096927;28;19962;-70
2022/04/08 06:01:42;;;;;;;;;;;;;;;11.04;51.25;98113.69;5096884;28;19920;-71
2022/04/08 06:04:10;;;;;;;;;;;;;;;11.01;51.87;98090.81;5096819;28;20040;-70
2022/04/08 06:06:43;;;;;;;;;;;;;;;11.00;53.12;98117.19;5097068;28;19920;-70
2022/04/08 06:09:11;;;;;;;;;;;;;;;10.97;53.48;98125.78;5096733;28;19924;-70
2022/04/08 06:11:42;;;;;;;;;;;;;;;10.95;54.05;98142.00;5096619;28;19926;-71
2022/04/08 06:14:10;;;;;;;;;;;;;;;10.92;54.14;98134.47;5096690;28;19920;-70
2022/04/08 06:16:39;;;;;;;;;;;;;;;10.91;54.30;98135.31;5096787;28;20250;-70
2022/04/08 06:19:09;;;;;;;;;;;;;;;10.88;54.02;98161.78;5096747;28;20395;-69
2022/04/08 06:21:38;;;;;;;;;;;;;;;10.86;53.48;98155.03;5096241;28;19946;-70
2022/04/08 06:24:07;;;;;;;;;;;;;;;10.93;53.20;98133.56;5096398;28;19920;-70
2022/04/08 06:26:36;;;;;;;;;;;;;;;10.99;52.97;98128.31;5096307;28;20396;-70
2022/04/08 06:29:05;;;;;;;;;;;;;;;11.06;52.49;98150.25;5096270;28;19920;-71
2022/04/08 06:31:34;;;;;;;;;;;;;;;11.13;51.94;98156.84;5096520;28;20377;-71
2022/04/08 06:34:02;;;;;;;;;;;;;;;11.25;51.65;98171.84;5096134;28;20011;-71
2022/04/08 06:36:32;;;;;;;;;;;;;;;11.35;51.32;98176.63;5096505;28;20334;-71
2022/04/08 06:39:01;;;;;;;;;;;;;;;11.41;50.78;98178.19;5096016;28;19927;-71
2022/04/08 06:41:30;;;;;;;;;;;;;;;11.50;50.57;98190.69;5096485;28;19920;-71
2022/04/08 06:43:59;;;;;;;;;;;;;;;11.54;50.67;98183.78;5096315;28;19926;-71
2022/04/08 06:46:27;;;;;;;;;;;;;;;11.58;50.42;98191.31;5095939;28;19927;-70
2022/04/08 06:48:58;;;;;;;;;;;;;;;11.65;50.91;98185.16;5096579;28;20323;-71
2022/04/08 06:51:26;;;;;;;;;;;;;;;11.63;48.85;98189.47;5095854;28;20010;-70
2022/04/08 06:53:56;;;;;;;;;;;;;;;11.63;47.87;98199.69;5096254;28;20433;-69
2022/04/08 06:56:25;;;;;;;;;;;;;;;11.66;47.82;98189.34;5095920;28;19967;-71
2022/04/08 06:58:53;;;;;;;;;;;;;;;11.69;47.43;98173.97;5095788;28;19920;-70
2022/04/08 07:01:23;;;;;;;;;;;;;;;11.73;47.62;98185.81;5077606;28;19963;-71
2022/04/08 07:03:51;;;;;;;;;;;;;;;11.81;47.75;98188.94;5095953;28;20034;-70
2022/04/08 07:06:20;;;;;;;;;;;;;;;11.88;47.37;98187.88;5095644;28;19927;-70
2022/04/08 07:08:49;;;;;;;;;;;;;;;11.91;47.42;98187.78;5092522;28;19920;-70
2022/04/08 07:11:19;;;;;;;;;;;;;;;11.97;48.15;98192.72;5095353;28;20384;-70
2022/04/08 07:13:47;;;;;;;;;;;;;;;12.00;48.45;98200.28;5077683;28;19973;-69
2022/04/08 07:16:16;;;;;;;;;;;;;;;12.05;48.26;98198.44;5095297;28;19966;-70
2022/04/08 07:18:44;;;;;;;;;;;;;;;12.08;48.96;98208.59;5093525;28;20041;-69
2022/04/08 07:21:13;;;;;;;;;;;;;;;12.13;49.64;98220.38;5085169;28;19921;-70
2022/04/08 07:23:42;;;;;;;;;;;;;;;12.13;50.89;98220.38;5075076;28;19920;-70
2022/04/08 07:26:10;;;;;;;;;;;;;;;12.12;52.02;98213.59;5076549;28;20385;-70
2022/04/08 07:28:40;;;;;;;;;;;;;;;12.14;52.39;98204.97;5075223;28;19920;-70
2022/04/08 07:31:09;;;;;;;;;;;;;;;12.18;52.57;98219.38;5063351;28;19927;-71
2022/04/08 07:33:37;;;;;;;;;;;;;;;12.18;52.54;98224.47;5074496;28;19942;-70
2022/04/08 07:36:06;;;;;;;;;;;;;;;12.15;52.73;98224.56;5115320;28;19919;-70
2022/04/08 07:38:35;;;;;;;;;;;;;;;12.16;52.01;98240.75;5115656;28;19920;-70
2022/04/08 07:41:03;;;;;;;;;;;;;;;12.20;51.17;98252.56;5115436;28;19962;-70
2022/04/08 07:43:32;;;;;;;;;;;;;;;12.21;50.91;98244.00;5115184;28;19958;-69
2022/04/08 07:46:02;;;;;;;;;;;;;;;12.20;50.38;98237.22;5115241;28;19953;-70
2022/04/08 07:48:31;;;;;;;;;;;;;;;12.18;49.10;98254.31;5115396;28;20319;-68
2022/04/08 07:51:00;;;;;;;;;;;;;;;12.23;48.35;98252.47;5102969;28;19919;-70
2022/04/08 07:53:29;;;;;;;;;;;;;;;12.29;47.97;98252.28;5113817;28;19924;-70
2022/04/08 07:55:58;;;;;;;;;;;;;;;12.27;47.93;98254.03;5085479;28;19923;-70
2022/04/08 07:58:26;;;;;;;;;;;;;;;12.29;47.94;98272.75;5096701;28;19950;-70
2022/04/08 08:00:55;;;;;;;;;;;;;;;12.26;48.26;98275.41;5115176;28;20281;-68
2022/04/08 08:03:25;;;;;;;;;;;;;;;12.25;48.19;98278.84;5114915;28;19923;-70
2022/04/08 08:05:53;;;;;;;;;;;;;;;12.22;47.96;98264.41;5114716;28;19932;-70
2022/04/08 08:08:22;;;;;;;;;;;;;;;12.18;48.93;98278.19;5114968;28;20361;-68
2022/04/08 08:10:51;;;;;;;;;;;;;;;12.17;49.37;98291.84;5114783;28;19926;-70
2022/04/08 08:13:19;;;;;;;;;;;;;;;12.21;49.93;98295.16;5114611;28;20466;-70
2022/04/08 08:15:48;;;;;;;;;;;;;;;12.19;50.36;98291.81;5114489;28;19923;-70
2022/04/08 08:18:17;;;;;;;;;;;;;;;12.17;50.16;98273.94;5101372;28;19920;-69
2022/04/08 08:20:48;;;;;;;;;;;;;;;12.19;48.60;98281.59;5113507;28;20340;-70
2022/04/08 08:23:17;;;;;;;;;;;;;;;12.22;48.28;98281.47;5114864;28;19920;-69
2022/04/08 08:25:45;;;;;;;;;;;;;;;12.26;47.48;98273.66;5092046;28;20277;-71
2022/04/08 08:28:22;;;;;;;;;;;;;;;12.34;46.51;98283.66;5056672;28;19921;-70
2022/04/08 08:30:50;;;;;;;;;;;;;;;12.36;45.76;98294.69;5074116;28;19920;-70
2022/04/08 08:33:19;;;;;;;;;;;;;;;12.44;45.69;98302.97;5056032;28;19970;-69
2022/04/08 08:35:49;;;;;;;;;;;;;;;12.53;46.04;98300.13;5095876;28;20025;-68
2022/04/08 08:38:18;;;;;;;;;;;;;;;12.62;46.26;98310.13;5092572;28;20015;-70
2022/04/08 08:40:48;;;;;;;;;;;;;;;12.67;46.46;98305.66;5079313;28;20277;-70
2022/04/08 08:43:18;;;;;;;;;;;;;;;12.77;46.38;98301.94;5114262;28;19919;-70
2022/04/08 08:45:48;;;;;;;;;;;;;;;12.88;46.46;98310.13;5113966;28;19927;-71
2022/04/08 08:48:23;;;;;;;;;;;;;;;12.92;46.22;98316.81;5089511;28;20362;-70
2022/04/08 08:50:55;;;;;;;;;;;;;;;12.86;46.39;98317.00;5093358;28;19932;-70
2022/04/08 08:53:26;;;;;;;;;;;;;;;12.74;47.37;98308.00;5093591;28;20012;-69
2022/04/08 08:55:54;;;;;;;;;;;;;;;12.73;47.62;98310.59;5092025;28;19973;-70
2022/04/08 08:58:23;;;;;;;;;;;;;;;12.76;48.33;98301.09;5094016;28;20009;-68
2022/04/08 09:00:52;;;;;;;;;;;;;;;12.81;48.21;98313.78;5114084;28;20396;-69
2022/04/08 09:03:20;;;;;;;;;;;;;;;12.85;47.53;98299.97;5114166;28;20361;-70
2022/04/08 09:05:52;;;;;;;;;;;;;;;12.97;47.42;98314.09;5114077;28;19973;-70
2022/04/08 09:08:22;;;;;;;;;;;;;;;13.19;47.78;98310.84;5114116;28;19920;-70
2022/04/08 09:10:52;;;;;;;;;;;;;;;13.63;47.55;98305.94;5108974;28;19927;-71
2022/04/08 09:13:23;;;;;;;;;;;;;;;13.91;46.72;98296.34;5101306;28;19924;-70
2022/04/08 09:15:55;;;;;;;;;;;;;;;14.14;45.54;98304.03;5114839;28;19919;-70
2022/04/08 09:18:27;;;;;;;;;;;;;;;14.46;45.10;98308.00;5113905;28;19920;-70
2022/04/08 09:20:55;;;;;;;;;;;;;;;14.68;44.68;98314.78;5102848;28;19924;-70
2022/04/08 09:23:28;;;;;;;;;;;;;;;14.84;43.88;98311.63;5106438;28;19958;-70
2022/04/08 09:26:01;;;;;;;;;;;;;;;14.88;42.79;98319.16;5108846;28;19951;-69
2022/04/08 09:28:33;;;;;;;;;;;;;;;14.84;43.11;98327.03;5082684;28;19974;-69
2022/04/08 09:31:03;;;;;;;;;;;;;;;14.67;42.84;98315.69;5074318;28;19920;-70
2022/04/08 09:33:33;;;;;;;;;;;;;;;14.56;42.58;98328.13;5077087;28;19942;-70
2022/04/08 09:36:02;;;;;;;;;;;;;;;14.52;41.83;98321.41;5077408;28;19927;-69
2022/04/08 09:38:32;;;;;;;;;;;;;;;14.58;41.75;98316.06;5076926;28;19952;-71
2022/04/08 09:41:02;;;;;;;;;;;;;;;14.81;41.59;98311.75;5082451;28;20380;-71
2022/04/08 09:43:31;;;;;;;;;;;;;;;15.04;41.16;98324.50;5099442;28;20357;-71
2022/04/08 09:46:15;;;;;;;;;;;;;;;15.19;40.92;98313.59;5112256;28;19927;-71
2022/04/08 09:48:44;;;;;;;;;;;;;;;15.37;40.70;98318.84;5095668;28;19920;-71
2022/04/08 09:51:15;;;;;;;;;;;;;;;15.39;40.67;98319.59;5079299;28;19920;-70
2022/04/08 09:53:48;;;;;;;;;;;;;;;15.01;40.08;98340.91;5097416;28;20281;-71
2022/04/08 09:56:21;;;;;;;;;;;;;;;14.90;40.11;98331.94;5097077;28;19924;-70
2022/04/08 09:58:54;;;;;;;;;;;;;;;15.12;41.32;98331.00;5096907;28;19920;-71
2022/04/08 10:01:25;;;;;;;;;;;;;;;15.07;41.07;98327.78;5096814;28;19965;-72
2022/04/08 10:03:54;;;;;;;;;;;;;;;15.13;41.87;98313.84;5095888;28;19920;-68
2022/04/08 10:06:24;;;;;;;;;;;;;;;15.41;42.58;98332.38;5096980;28;19972;-70
2022/04/08 10:08:54;;;;;;;;;;;;;;;15.51;42.24;98314.84;5096795;28;19920;-71
2022/04/08 10:11:26;;;;;;;;;;;;;;;15.58;41.73;98317.09;5096956;28;20006;-70
2022/04/08 10:14:01;;;;;;;;;;;;;;;15.72;41.29;98304.47;5096583;28;20301;-71
2022/04/08 10:16:31;;;;;;;;;;;;;;;15.85;41.02;98300.50;5101252;28;19924;-69
2022/04/08 10:19:04;;;;;;;;;;;;;;;15.88;41.52;98302.09;5096118;28;19920;-71
2022/04/08 10:21:36;;;;;;;;;;;;;;;16.00;41.67;98299.78;5089656;28;19926;-69
2022/04/08 10:24:10;;;;;;;;;;;;;;;16.27;42.15;98291.75;5116765;28;19920;-69
2022/04/08 10:26:54;;;;;;;;;;;;;;;16.42;41.39;98291.03;5098861;28;19919;-72
2022/04/08 10:29:22;;;;;;;;;;;;;;;16.35;38.83;98302.50;5104365;28;19919;-71
2022/04/08 10:31:58;;;;;;;;;;;;;;;16.57;38.94;98300.66;5116933;28;19919;-71
2022/04/08 10:34:28;;;;;;;;;;;;;;;16.59;38.54;98299.69;5105825;28;19920;-71
2022/04/08 10:36:57;;;;;;;;;;;;;;;16.51;39.28;98290.59;5084983;28;19994;-71
2022/04/08 10:39:27;;;;;;;;;;;;;;;16.54;39.08;98280.19;5075830;28;19927;-70
2022/04/08 10:41:57;;;;;;;;;;;;;;;16.73;39.98;98275.81;5107230;28;19919;-71
2022/04/08 10:44:34;;;;;;;;;;;;;;;16.79;39.92;98269.56;5077103;28;20030;-70
2022/04/08 10:47:03;;;;;;;;;;;;;;;16.66;38.84;98256.41;5092442;28;19924;-69
2022/04/08 10:49:32;;;;;;;;;;;;;;;16.45;38.56;98245.38;5096135;28;20278;-70
2022/04/08 10:52:00;;;;;;;;;;;;;;;16.25;38.80;98248.03;5095706;28;19920;-72
2022/04/08 10:54:38;;;;;;;;;;;;;;;16.24;39.76;98246.38;5095760;28;20285;-70
2022/04/08 10:57:07;;;;;;;;;;;;;;;16.43;39.91;98251.50;5095747;28;19920;-71
2022/04/08 10:59:35;;;;;;;;;;;;;;;16.66;39.70;98241.78;5095774;28;19924;-70
2022/04/08 11:02:10;;;;;;;;;;;;;;;16.79;38.94;98243.78;5094667;28;20289;-71
2022/04/08 11:04:40;;;;;;;;;;;;;;;16.92;38.91;98245.66;5095689;28;19965;-71
2022/04/08 11:07:08;;;;;;;;;;;;;;;17.12;39.44;98247.28;5095875;28;19924;-72
2022/04/08 11:09:38;;;;;;;;;;;;;;;17.22;37.61;98243.31;5095491;28;19924;-71
2022/04/08 11:12:07;;;;;;;;;;;;;;;17.30;36.86;98236.00;5094648;28;19969;-72
2022/04/08 11:14:38;;;;;;;;;;;;;;;17.41;37.81;98242.31;5095426;28;19955;-71
2022/04/08 11:17:07;;;;;;;;;;;;;;;17.12;37.60;98237.78;5107336;28;19919;-71
2022/04/08 11:19:35;;;;;;;;;;;;;;;16.78;38.05;98245.53;5093992;28;19969;-70
2022/04/08 11:22:12;;;;;;;;;;;;;;;16.22;38.63;98232.72;5095222;28;20014;-71
2022/04/08 11:24:43;;;;;;;;;;;;;;;16.03;38.96;98231.91;5085034;28;19921;-71
2022/04/08 11:27:12;;;;;;;;;;;;;;;15.90;36.79;98234.22;5075197;28;20332;-71
2022/04/08 11:29:41;;;;;;;;;;;;;;;15.75;35.83;98227.19;5074163;28;19924;-71
2022/04/08 11:32:11;;;;;;;;;;;;;;;15.71;35.89;98233.38;5074532;28;19930;-72
2022/04/08 11:34:40;;;;;;;;;;;;;;;15.72;35.89;98237.59;5074734;28;19930;-70
2022/04/08 11:37:08;;;;;;;;;;;;;;;15.58;36.20;98232.25;5074999;28;20015;-70
2022/04/08 11:39:40;;;;;;;;;;;;;;;15.46;36.31;98230.22;5074644;28;19921;-71
2022/04/08 11:42:10;;;;;;;;;;;;;;;15.25;36.50;98229.38;5075038;28;19955;-70
2022/04/08 11:44:39;;;;;;;;;;;;;;;15.17;38.21;98233.16;5074709;28;19920;-71
2022/04/08 11:47:08;;;;;;;;;;;;;;;15.18;39.15;98227.97;5074715;28;20018;-70
2022/04/08 11:49:37;;;;;;;;;;;;;;;15.28;40.05;98224.06;5079036;28;19920;-71
2022/04/08 11:52:06;;;;;;;;;;;;;;;15.30;40.63;98229.19;5083130;28;19926;-70
2022/04/08 11:54:35;;;;;;;;;;;;;;;15.31;40.90;98231.66;5112055;28;19955;-70
2022/04/08 11:57:04;;;;;;;;;;;;;;;15.29;40.95;98232.63;5114578;28;19942;-71
2022/04/08 11:59:35;;;;;;;;;;;;;;;15.25;41.47;98231.94;5074067;28;19920;-71
2022/04/08 12:02:04;;;;;;;;;;;;;;;15.17;41.58;98233.16;5074441;28;19925;-70
2022/04/08 12:04:33;;;;;;;;;;;;;;;15.10;41.99;98232.59;5074496;28;19974;-70
2022/04/08 12:07:02;;;;;;;;;;;;;;;15.01;41.78;98227.00;5074752;28;19920;-70
2022/04/08 12:09:31;;;;;;;;;;;;;;;14.87;42.35;98230.16;5074640;28;19973;-70
2022/04/08 12:12:00;;;;;;;;;;;;;;;14.80;42.64;98222.75;5056544;28;20019;-70
2022/04/08 12:14:30;;;;;;;;;;;;;;;14.73;42.84;98217.84;5074276;28;20286;-70
2022/04/08 12:17:03;;;;;;;;;;;;;;;14.67;42.84;98220.69;5077814;28;19920;-71
2022/04/08 12:19:39;;;;;;;;;;;;;;;14.66;42.59;98215.63;5114698;28;19984;-71
2022/04/08 12:22:11;;;;;;;;;;;;;;;14.65;43.03;98214.78;5114352;28;19976;-71
2022/04/08 12:24:40;;;;;;;;;;;;;;;14.60;42.99;98215.84;5110563;28;19946;-71
2022/04/08 12:27:17;;;;;;;;;;;;;;;14.53;43.38;98215.28;5086212;28;20366;-71
2022/04/08 12:29:46;;;;;;;;;;;;;;;14.56;42.97;98219.44;5114858;28;20446;-71
2022/04/08 12:32:17;;;;;;;;;;;;;;;14.58;44.11;98223.63;5100228;28;20332;-71
2022/04/08 12:34:45;;;;;;;;;;;;;;;14.51;44.39;98216.22;5093901;28;20384;-71
2022/04/08 12:37:14;;;;;;;;;;;;;;;14.47;44.83;98205.22;5097104;28;20269;-71
2022/04/08 12:39:43;;;;;;;;;;;;;;;14.46;45.42;98203.59;5096149;28;19958;-71
2022/04/08 12:42:11;;;;;;;;;;;;;;;14.48;45.73;98190.69;5114592;28;19943;-71
2022/04/08 12:44:40;;;;;;;;;;;;;;;14.52;45.48;98184.50;5114323;28;19962;-70
2022/04/08 12:47:10;;;;;;;;;;;;;;;14.60;45.80;98185.88;5102568;28;19920;-72
2022/04/08 12:49:41;;;;;;;;;;;;;;;14.68;45.96;98181.25;5092579;28;19920;-70
2022/04/08 12:52:10;;;;;;;;;;;;;;;14.64;45.48;98177.16;5091150;28;20010;-71
2022/04/08 12:54:38;;;;;;;;;;;;;;;14.60;45.52;98180.75;5094184;28;19973;-70
2022/04/08 12:57:07;;;;;;;;;;;;;;;14.63;45.76;98185.78;5093852;28;19920;-71
2022/04/08 12:59:36;;;;;;;;;;;;;;;14.62;46.70;98178.94;5093964;28;19920;-70